createdAt,value
2022-11-27T00:01:13.783Z,3.13
2022-11-27T00:03:41.981Z,3.40
2022-11-27T00:06:13.044Z,2.80
2022-11-27T00:08:41.029Z,3.08
2022-11-27T00:11:18.926Z,2.88
2022-11-27T00:13:46.394Z,3.15
2022-11-27T00:16:14.197Z,3.03
2022-11-27T00:18:41.783Z,3.47
2022-11-27T00:21:14.584Z,3.05
2022-11-27T00:23:42.395Z,3.95
2022-11-27T00:26:09.854Z,3.47
2022-11-27T00:28:38.076Z,6.00
2022-11-27T00:31:21.673Z,4.95
2022-11-27T00:33:50.067Z,4.30
2022-11-27T00:36:17.453Z,3.97
2022-11-27T00:38:44.839Z,5.20
2022-11-27T00:41:16.983Z,5.82
2022-11-27T00:43:45.423Z,3.80
2022-11-27T00:46:17.086Z,3.28
2022-11-27T00:48:44.913Z,3.70
2022-11-27T00:51:14.764Z,2.85
2022-11-27T00:53:43.691Z,3.28
2022-11-27T00:56:15.262Z,3.53
2022-11-27T00:58:43.141Z,3.58
2022-11-27T01:01:16.305Z,3.33
2022-11-27T01:03:43.778Z,3.03
2022-11-27T01:06:11.680Z,3.30
2022-11-27T01:08:39.582Z,3.53
2022-11-27T01:11:07.106Z,3.78
2022-11-27T01:13:36.245Z,3.35
2022-11-27T01:16:05.119Z,3.60
2022-11-27T01:18:33.439Z,3.47
2022-11-27T01:21:01.074Z,4.15
2022-11-27T01:23:28.961Z,4.07
2022-11-27T01:25:56.458Z,2.88
2022-11-27T01:28:24.240Z,3.78
2022-11-27T01:30:52.152Z,3.90
2022-11-27T01:33:19.632Z,3.53
2022-11-27T01:35:57.772Z,4.32
2022-11-27T01:38:25.569Z,4.35
2022-11-27T01:41:02.070Z,3.63
2022-11-27T01:43:47.056Z,3.47
2022-11-27T01:46:31.036Z,2.90
2022-11-27T01:49:25.352Z,3.47
2022-11-27T01:52:10.855Z,3.22
2022-11-27T01:54:50.580Z,2.58
2022-11-27T01:57:27.553Z,2.85
2022-11-27T01:59:55.664Z,2.95
2022-11-27T02:02:23.474Z,3.03
2022-11-27T02:04:51.380Z,3.53
2022-11-27T02:07:18.857Z,3.38
2022-11-27T02:09:46.306Z,3.05
2022-11-27T02:12:26.824Z,3.13
2022-11-27T02:15:21.539Z,3.17
2022-11-27T02:18:26.569Z,3.88
2022-11-27T02:21:34.929Z,3.55
2022-11-27T02:24:23.520Z,3.45
2022-11-27T02:27:06.308Z,2.78
2022-11-27T02:29:34.074Z,3.10
2022-11-27T02:32:21.221Z,3.28
2022-11-27T02:34:55.985Z,3.55
2022-11-27T02:37:36.844Z,3.70
2022-11-27T02:40:26.322Z,3.08
2022-11-27T02:43:04.556Z,3.25
2022-11-27T02:45:53.425Z,4.05
2022-11-27T02:48:23.400Z,3.55
2022-11-27T02:50:51.026Z,3.13
2022-11-27T02:53:25.258Z,3.35
2022-11-27T02:55:52.986Z,4.03
2022-11-27T02:58:23.033Z,3.53
2022-11-27T03:00:50.613Z,2.88
2022-11-27T03:03:21.348Z,2.80
2022-11-27T03:05:50.748Z,3.00
2022-11-27T03:08:31.992Z,2.78
2022-11-27T03:11:05.298Z,2.95
2022-11-27T03:13:40.073Z,3.03
2022-11-27T03:16:17.548Z,3.13
2022-11-27T03:18:57.091Z,2.97
2022-11-27T03:21:44.515Z,2.83
2022-11-27T03:24:12.269Z,4.40
2022-11-27T03:26:40.385Z,4.70
2022-11-27T03:29:13.471Z,3.97
2022-11-27T03:31:41.169Z,3.42
2022-11-27T03:34:08.761Z,3.65
2022-11-27T03:36:36.486Z,3.08
2022-11-27T03:39:04.175Z,2.35
2022-11-27T03:41:43.348Z,2.88
2022-11-27T03:44:35.895Z,2.67
2022-11-27T03:47:34.299Z,2.47
2022-11-27T03:50:16.838Z,2.88
2022-11-27T03:52:53.318Z,2.50
2022-11-27T03:55:31.724Z,2.90
2022-11-27T03:58:05.447Z,2.50
2022-11-27T04:00:38.627Z,2.30
2022-11-27T04:03:11.882Z,2.70
2022-11-27T04:05:39.716Z,3.17
2022-11-27T04:08:08.468Z,2.22
2022-11-27T04:10:35.937Z,2.97
2022-11-27T04:13:03.871Z,3.15
2022-11-27T04:15:32.839Z,2.78
2022-11-27T04:18:00.260Z,2.88
2022-11-27T04:20:29.551Z,3.33
2022-11-27T04:22:57.013Z,2.35
2022-11-27T04:25:24.437Z,2.17
2022-11-27T04:27:51.935Z,2.25
2022-11-27T04:30:19.428Z,2.38
2022-11-27T04:32:47.108Z,2.53
2022-11-27T04:35:14.733Z,2.47
2022-11-27T04:37:42.129Z,2.55
2022-11-27T04:40:10.096Z,2.85
2022-11-27T04:42:38.289Z,2.80
2022-11-27T04:45:06.868Z,2.60
2022-11-27T04:47:35.553Z,2.50
2022-11-27T04:50:03.307Z,2.85
2022-11-27T04:52:31.446Z,2.70
2022-11-27T04:55:00.411Z,3.53
2022-11-27T04:57:28.173Z,2.90
2022-11-27T04:59:55.848Z,2.45
2022-11-27T05:02:23.430Z,2.70
2022-11-27T05:04:51.146Z,2.58
2022-11-27T05:07:18.699Z,3.08
2022-11-27T05:09:46.291Z,2.67
2022-11-27T05:12:13.771Z,2.60
2022-11-27T05:14:41.944Z,2.50
2022-11-27T05:17:11.945Z,2.70
2022-11-27T05:19:39.549Z,2.63
2022-11-27T05:22:07.060Z,2.92
2022-11-27T05:24:35.973Z,2.30
2022-11-27T05:27:04.820Z,2.40
2022-11-27T05:29:35.551Z,2.85
2022-11-27T05:32:03.517Z,2.75
2022-11-27T05:34:30.983Z,2.47
2022-11-27T05:36:58.479Z,2.60
2022-11-27T05:39:25.972Z,2.78
2022-11-27T05:41:54.251Z,3.10
2022-11-27T05:44:22.003Z,2.72
2022-11-27T05:46:50.255Z,2.38
2022-11-27T05:49:17.995Z,2.28
2022-11-27T05:51:50.928Z,2.42
2022-11-27T05:54:19.253Z,2.30
2022-11-27T05:56:47.045Z,2.45
2022-11-27T05:59:15.215Z,2.50
2022-11-27T06:01:43.351Z,2.13
2022-11-27T06:04:11.238Z,2.17
2022-11-27T06:06:38.795Z,2.65
2022-11-27T06:09:12.147Z,2.28
2022-11-27T06:11:40.535Z,1.90
2022-11-27T06:14:09.617Z,2.38
2022-11-27T06:16:37.286Z,2.47
2022-11-27T06:19:07.501Z,1.88
2022-11-27T06:21:35.122Z,2.10
2022-11-27T06:24:03.328Z,1.90
2022-11-27T06:26:32.242Z,2.00
2022-11-27T06:29:00.389Z,2.92
2022-11-27T06:31:30.621Z,2.42
2022-11-27T06:33:58.107Z,2.00
2022-11-27T06:36:29.144Z,2.58
2022-11-27T06:38:56.518Z,2.45
2022-11-27T06:41:28.726Z,1.98
2022-11-27T06:43:57.483Z,2.58
2022-11-27T06:46:24.999Z,2.28
2022-11-27T06:48:53.037Z,2.22
2022-11-27T06:51:22.959Z,2.55
2022-11-27T06:53:50.676Z,2.42
2022-11-27T06:56:20.797Z,2.22
2022-11-27T06:58:54.598Z,2.33
2022-11-27T07:01:22.510Z,2.13
2022-11-27T07:03:50.670Z,2.40
2022-11-27T07:06:20.205Z,2.10
2022-11-27T07:08:51.327Z,2.42
2022-11-27T07:11:20.831Z,1.80
2022-11-27T07:13:49.238Z,1.88
2022-11-27T07:16:17.102Z,2.17
2022-11-27T07:18:48.696Z,2.25
2022-11-27T07:21:16.686Z,2.15
2022-11-27T07:23:45.787Z,2.15
2022-11-27T07:26:18.541Z,1.88
2022-11-27T07:28:47.182Z,2.30
2022-11-27T07:31:16.935Z,2.28
2022-11-27T07:33:44.809Z,2.25
2022-11-27T07:36:23.016Z,2.05
2022-11-27T07:38:50.884Z,2.63
2022-11-27T07:41:18.857Z,2.33
2022-11-27T07:43:46.672Z,2.50
2022-11-27T07:46:19.576Z,1.95
2022-11-27T07:48:47.497Z,2.05
2022-11-27T07:51:16.673Z,2.05
2022-11-27T07:53:45.381Z,1.90
2022-11-27T07:56:13.944Z,1.73
2022-11-27T07:58:41.544Z,1.90
2022-11-27T08:01:10.824Z,1.95
2022-11-27T08:03:38.581Z,1.92
2022-11-27T08:06:14.296Z,1.42
2022-11-27T08:08:42.874Z,1.90
2022-11-27T08:11:18.695Z,1.63
2022-11-27T08:13:46.225Z,1.83
2022-11-27T08:16:14.314Z,1.88
2022-11-27T08:18:44.619Z,1.80
2022-11-27T08:21:13.043Z,1.40
2022-11-27T08:23:40.746Z,1.23
2022-11-27T08:26:09.025Z,1.67
2022-11-27T08:28:37.047Z,2.33
2022-11-27T08:31:05.593Z,1.48
2022-11-27T08:33:33.908Z,2.10
2022-11-27T08:36:01.426Z,2.30
2022-11-27T08:38:29.878Z,2.08
2022-11-27T08:41:02.383Z,1.80
2022-11-27T08:43:30.559Z,2.08
2022-11-27T08:45:58.717Z,2.50
2022-11-27T08:48:26.372Z,2.00
2022-11-27T08:50:53.976Z,2.70
2022-11-27T08:53:21.621Z,3.03
2022-11-27T08:55:49.458Z,1.95
2022-11-27T08:58:19.147Z,2.45
2022-11-27T09:00:47.606Z,2.40
2022-11-27T09:03:15.349Z,2.40
2022-11-27T09:05:44.460Z,2.70
2022-11-27T09:08:16.785Z,2.70
2022-11-27T09:10:45.018Z,2.85
2022-11-27T09:13:13.901Z,2.78
2022-11-27T09:15:41.296Z,2.80
2022-11-27T09:18:09.102Z,2.53
2022-11-27T09:20:36.966Z,2.42
2022-11-27T09:23:08.911Z,3.10
2022-11-27T09:25:42.139Z,3.13
2022-11-27T09:28:09.938Z,2.60
2022-11-27T09:30:42.137Z,2.72
2022-11-27T09:33:09.913Z,2.90
2022-11-27T09:35:38.470Z,3.75
2022-11-27T09:38:06.170Z,3.13
2022-11-27T09:40:36.511Z,3.30
2022-11-27T09:43:10.266Z,3.13
2022-11-27T09:45:45.338Z,2.95
2022-11-27T09:48:17.725Z,3.13
2022-11-27T09:50:50.615Z,3.58
2022-11-27T09:53:18.275Z,3.78
2022-11-27T09:55:47.834Z,4.03
2022-11-27T09:58:21.106Z,5.13
2022-11-27T10:00:49.036Z,5.18
2022-11-27T10:03:22.421Z,3.58
2022-11-27T10:06:14.692Z,4.00
2022-11-27T10:09:12.815Z,3.10
2022-11-27T10:11:52.053Z,3.05
2022-11-27T10:14:22.785Z,2.85
2022-11-27T10:17:02.694Z,3.83
2022-11-27T10:19:54.953Z,4.10
2022-11-27T10:22:45.278Z,5.53
2022-11-27T10:25:35.271Z,10.48
2022-11-27T10:28:04.407Z,12.82
2022-11-27T10:30:33.311Z,9.32
2022-11-27T10:33:01.910Z,5.78
2022-11-27T10:35:32.000Z,4.60
2022-11-27T10:38:06.945Z,3.97
2022-11-27T10:40:48.560Z,6.22
2022-11-27T10:43:20.507Z,7.50
2022-11-27T10:45:52.639Z,4.90
2022-11-27T10:48:20.508Z,5.85
2022-11-27T10:50:48.458Z,5.10
2022-11-27T10:53:35.593Z,4.85
2022-11-27T10:56:12.322Z,5.05
2022-11-27T10:58:55.106Z,3.88
2022-11-27T11:01:24.425Z,3.85
2022-11-27T11:04:18.706Z,4.20
2022-11-27T11:06:53.374Z,4.32
2022-11-27T11:09:24.918Z,4.32
2022-11-27T11:11:52.525Z,3.58
2022-11-27T11:14:24.844Z,3.50
2022-11-27T11:16:53.612Z,3.65
2022-11-27T11:19:22.130Z,3.60
2022-11-27T11:21:49.678Z,3.25
2022-11-27T11:24:31.430Z,3.85
2022-11-27T11:27:06.810Z,3.47
2022-11-27T11:29:48.672Z,3.90
2022-11-27T11:32:32.909Z,3.58
2022-11-27T11:35:01.710Z,3.25
2022-11-27T11:37:42.158Z,3.75
2022-11-27T11:40:22.469Z,3.70
2022-11-27T11:42:59.855Z,3.30
2022-11-27T11:45:32.430Z,3.55
2022-11-27T11:48:17.186Z,2.88
2022-11-27T11:51:09.209Z,3.15
2022-11-27T11:53:45.658Z,3.20
2022-11-27T11:56:26.148Z,3.03
2022-11-27T11:59:05.789Z,3.05
2022-11-27T12:01:43.692Z,2.97
2022-11-27T12:04:17.389Z,2.83
2022-11-27T12:06:51.829Z,2.70
2022-11-27T12:09:51.214Z,3.20
2022-11-27T12:12:45.166Z,5.38
2022-11-27T12:15:37.663Z,5.05
2022-11-27T12:18:29.470Z,3.97
2022-11-27T12:21:21.592Z,3.97
2022-11-27T12:24:13.029Z,4.45
2022-11-27T12:26:55.919Z,4.05
2022-11-27T12:29:29.347Z,5.90
2022-11-27T12:32:05.812Z,4.63
2022-11-27T12:35:05.777Z,3.70
2022-11-27T12:38:00.749Z,4.30
2022-11-27T12:40:48.061Z,4.32
2022-11-27T12:43:29.259Z,3.63
2022-11-27T12:48:41.161Z,3.22
2022-11-27T12:51:16.061Z,3.50
2022-11-27T12:54:04.326Z,3.25
2022-11-27T12:56:36.183Z,3.63
2022-11-27T12:59:03.985Z,3.83
2022-11-27T13:01:36.857Z,4.07
2022-11-27T13:04:22.968Z,3.30
2022-11-27T13:07:12.523Z,3.05
2022-11-27T13:09:58.085Z,3.97
2022-11-27T13:12:38.040Z,4.07
2022-11-27T13:15:09.202Z,4.95
2022-11-27T13:17:42.029Z,4.53
2022-11-27T13:20:22.214Z,5.35
2022-11-27T13:22:49.773Z,3.80
2022-11-27T13:25:17.521Z,5.20
2022-11-27T13:27:47.193Z,4.75
2022-11-27T13:30:28.656Z,4.90
2022-11-27T13:33:04.875Z,4.68
2022-11-27T13:35:42.835Z,4.28
2022-11-27T13:38:28.134Z,3.42
2022-11-27T13:41:06.794Z,4.53
2022-11-27T13:43:43.726Z,4.30
2022-11-27T13:46:20.057Z,3.78
2022-11-27T13:48:57.614Z,4.35
2022-11-27T13:51:39.701Z,4.43
2022-11-27T13:54:28.776Z,4.00
2022-11-27T13:57:13.587Z,3.40
2022-11-27T14:00:00.592Z,4.05
2022-11-27T14:02:45.265Z,4.18
2022-11-27T14:05:20.025Z,4.88
2022-11-27T14:07:54.837Z,4.40
2022-11-27T14:10:27.444Z,4.22
2022-11-27T14:12:59.345Z,4.93
2022-11-27T14:15:27.799Z,4.63
2022-11-27T14:18:08.734Z,5.32
2022-11-27T14:20:38.693Z,4.60
2022-11-27T14:23:12.733Z,4.38
2022-11-27T14:25:49.769Z,4.82
2022-11-27T14:28:27.511Z,4.38
2022-11-27T14:31:02.379Z,4.88
2022-11-27T14:33:47.563Z,5.07
2022-11-27T14:39:00.162Z,5.53
2022-11-27T14:41:34.553Z,4.65
2022-11-27T14:44:19.267Z,4.90
2022-11-27T14:46:46.873Z,5.70
2022-11-27T14:49:20.690Z,4.93
2022-11-27T14:51:49.451Z,9.15
2022-11-27T14:54:37.525Z,10.27
2022-11-27T14:57:05.658Z,10.63
2022-11-27T14:59:33.520Z,12.30
2022-11-27T15:02:17.946Z,6.43
2022-11-27T15:04:51.011Z,7.70
2022-11-27T15:07:24.162Z,5.57
2022-11-27T15:09:53.324Z,5.95
2022-11-27T15:12:29.240Z,6.47
2022-11-27T15:15:07.903Z,7.30
2022-11-27T15:17:39.596Z,9.60
2022-11-27T15:20:43.988Z,10.48
2022-11-27T15:23:16.959Z,6.85
2022-11-27T15:25:53.795Z,6.25
2022-11-27T15:28:36.887Z,7.00
2022-11-27T15:31:37.601Z,6.53
2022-11-27T15:34:14.632Z,6.93
2022-11-27T15:37:00.583Z,6.30
2022-11-27T15:39:49.685Z,5.60
2022-11-27T15:42:23.188Z,6.22
2022-11-27T15:44:54.527Z,5.00
2022-11-27T15:50:57.371Z,6.90
2022-11-27T15:53:28.095Z,7.30
2022-11-27T15:56:03.798Z,7.80
2022-11-27T15:58:31.273Z,7.28
2022-11-27T16:00:59.164Z,5.40
2022-11-27T16:03:26.680Z,4.57
2022-11-27T16:05:54.199Z,5.65
2022-11-27T16:08:23.684Z,5.07
2022-11-27T16:10:51.331Z,5.00
2022-11-27T16:13:34.804Z,4.90
2022-11-27T16:16:11.671Z,4.80
2022-11-27T16:18:40.110Z,5.57
2022-11-27T16:21:08.859Z,5.63
2022-11-27T16:23:37.209Z,5.63
2022-11-27T16:26:05.888Z,4.68
2022-11-27T16:28:34.014Z,5.22
2022-11-27T16:31:02.533Z,4.88
2022-11-27T16:33:30.826Z,5.22
2022-11-27T16:36:20.139Z,5.55
2022-11-27T16:38:48.833Z,4.55
2022-11-27T16:41:22.850Z,4.88
2022-11-27T16:43:52.756Z,5.10
2022-11-27T16:46:22.161Z,5.40
2022-11-27T16:48:54.030Z,5.13
2022-11-27T16:51:29.139Z,5.18
2022-11-27T16:54:02.705Z,5.32
2022-11-27T16:56:34.352Z,5.88
2022-11-27T16:59:03.303Z,5.45
2022-11-27T17:01:43.810Z,6.45
2022-11-27T17:04:21.764Z,5.97
2022-11-27T17:06:49.743Z,5.70
2022-11-27T17:09:23.954Z,6.45
2022-11-27T17:11:55.101Z,6.88
2022-11-27T17:14:27.023Z,7.10
2022-11-27T17:16:54.882Z,7.25
2022-11-27T17:19:27.235Z,7.05
2022-11-27T17:21:55.075Z,6.45
2022-11-27T17:24:24.988Z,5.50
2022-11-27T17:29:35.192Z,5.40
2022-11-27T17:32:13.186Z,7.10
2022-11-27T17:34:48.321Z,5.85
2022-11-27T17:39:45.330Z,8.10
2022-11-27T17:42:21.018Z,7.85
2022-11-27T17:44:53.257Z,6.35
2022-11-27T17:47:21.045Z,6.68
2022-11-27T17:49:48.849Z,6.93
2022-11-27T17:52:19.360Z,6.68
2022-11-27T17:54:52.982Z,6.15
2022-11-27T17:57:23.548Z,6.40
2022-11-27T17:59:54.324Z,7.28
2022-11-27T18:02:22.116Z,6.82
2022-11-27T18:04:53.206Z,7.60
2022-11-27T18:07:21.987Z,6.38
2022-11-27T18:09:53.462Z,5.55
2022-11-27T18:12:27.344Z,6.35
2022-11-27T18:15:01.188Z,5.97
2022-11-27T18:17:35.910Z,6.18
2022-11-27T18:20:04.508Z,6.90
2022-11-27T18:22:32.664Z,6.00
2022-11-27T18:25:00.482Z,6.60
2022-11-27T18:27:32.861Z,6.18
2022-11-27T18:30:08.657Z,6.05
2022-11-27T18:32:42.856Z,6.03
2022-11-27T18:35:14.576Z,5.28
2022-11-27T18:37:42.808Z,6.35
2022-11-27T18:40:11.086Z,6.15
2022-11-27T18:42:45.945Z,6.47
2022-11-27T18:45:31.649Z,6.13
2022-11-27T18:48:05.374Z,6.20
2022-11-27T18:50:34.635Z,6.65
2022-11-27T18:53:06.286Z,7.35
2022-11-27T18:55:36.910Z,7.50
2022-11-27T18:58:04.621Z,6.45
2022-11-27T19:00:32.454Z,5.85
2022-11-27T19:03:02.455Z,6.15
2022-11-27T19:05:30.424Z,6.68
2022-11-27T19:08:10.344Z,8.75
2022-11-27T19:10:40.697Z,6.32
2022-11-27T19:13:08.880Z,8.02
2022-11-27T19:15:40.351Z,9.05
2022-11-27T19:18:11.218Z,7.38
2022-11-27T19:20:46.297Z,7.68
2022-11-27T19:23:16.974Z,6.78
2022-11-27T19:25:45.106Z,6.63
2022-11-27T19:28:17.267Z,7.60
2022-11-27T19:30:52.979Z,6.70
2022-11-27T19:33:26.140Z,7.38
2022-11-27T19:36:09.676Z,7.05
2022-11-27T19:38:40.545Z,7.28
2022-11-27T19:41:15.297Z,8.43
2022-11-27T19:43:50.018Z,8.27
2022-11-27T19:46:24.616Z,6.72
2022-11-27T19:49:07.277Z,8.80
2022-11-27T19:51:38.591Z,8.60
2022-11-27T19:54:10.005Z,8.77
2022-11-27T19:56:42.859Z,9.20
2022-11-27T19:59:10.760Z,8.75
2022-11-27T20:01:41.228Z,8.50
2022-11-27T20:04:12.353Z,9.32
2022-11-27T20:06:50.624Z,9.85
2022-11-27T20:09:20.900Z,10.07
2022-11-27T20:11:49.881Z,9.43
2022-11-27T20:14:20.408Z,10.55
2022-11-27T20:16:48.620Z,10.18
2022-11-27T20:19:20.130Z,8.77
2022-11-27T20:21:49.825Z,9.27
2022-11-27T20:24:24.013Z,9.30
2022-11-27T20:26:51.781Z,9.02
2022-11-27T20:29:20.389Z,10.07
2022-11-27T20:31:48.917Z,9.40
2022-11-27T20:34:21.277Z,8.85
2022-11-27T20:36:49.474Z,9.82
2022-11-27T20:39:21.293Z,8.57
2022-11-27T20:41:50.905Z,9.18
2022-11-27T20:44:19.189Z,9.63
2022-11-27T20:46:49.498Z,9.75
2022-11-27T20:49:17.273Z,10.25
2022-11-27T20:51:45.267Z,8.65
2022-11-27T20:54:12.920Z,10.32
2022-11-27T20:56:43.223Z,11.25
2022-11-27T20:59:11.412Z,10.30
2022-11-27T21:01:39.294Z,10.52
2022-11-27T21:04:12.145Z,10.75
2022-11-27T21:06:43.890Z,12.00
2022-11-27T21:09:16.079Z,11.15
2022-11-27T21:11:47.702Z,12.13
2022-11-27T21:14:15.827Z,11.23
2022-11-27T21:16:48.114Z,10.65
2022-11-27T21:19:28.148Z,10.02
2022-11-27T21:21:56.262Z,10.20
2022-11-27T21:24:25.829Z,9.82
2022-11-27T21:26:55.507Z,10.23
2022-11-27T21:29:41.269Z,8.35
2022-11-27T21:32:44.174Z,8.90
2022-11-27T21:35:11.629Z,8.52
2022-11-27T21:37:43.310Z,8.45
2022-11-27T21:40:13.007Z,9.70
2022-11-27T21:42:44.516Z,9.90
2022-11-27T21:45:18.607Z,9.63
2022-11-27T21:47:50.053Z,9.68
2022-11-27T21:50:34.174Z,9.73
2022-11-27T21:53:01.933Z,10.45
2022-11-27T21:55:32.367Z,10.55
2022-11-27T21:57:59.960Z,10.00
2022-11-27T22:00:30.039Z,10.13
2022-11-27T22:02:57.910Z,11.70
2022-11-27T22:05:25.486Z,8.50
2022-11-27T22:07:56.183Z,9.73
2022-11-27T22:10:23.972Z,10.57
2022-11-27T22:12:53.514Z,9.57
2022-11-27T22:15:21.030Z,9.65
2022-11-27T22:17:48.810Z,10.20
2022-11-27T22:20:18.872Z,9.52
2022-11-27T22:22:52.687Z,10.32
2022-11-27T22:25:20.663Z,10.45
2022-11-27T22:27:53.275Z,9.10
2022-11-27T22:30:20.896Z,9.45
2022-11-27T22:32:49.137Z,9.52
2022-11-27T22:35:17.143Z,9.23
2022-11-27T22:37:44.774Z,9.02
2022-11-27T22:40:12.939Z,9.95
2022-11-27T22:42:40.933Z,10.05
2022-11-27T22:45:09.281Z,9.77
2022-11-27T22:48:06.534Z,8.77
2022-11-27T22:50:42.988Z,8.35
2022-11-27T22:53:10.885Z,9.70
2022-11-27T22:55:39.063Z,10.52
2022-11-27T22:58:06.788Z,10.20
2022-11-27T23:00:34.576Z,9.93
2022-11-27T23:03:02.516Z,10.18
2022-11-27T23:05:38.515Z,9.75
2022-11-27T23:08:14.209Z,9.90
2022-11-27T23:10:42.736Z,10.57
2022-11-27T23:13:11.046Z,11.32
2022-11-27T23:15:42.940Z,10.25
2022-11-27T23:18:16.878Z,12.23
2022-11-27T23:20:46.903Z,9.23
2022-11-27T23:25:53.305Z,9.15
2022-11-27T23:28:33.498Z,9.25
2022-11-27T23:31:28.953Z,9.50
2022-11-27T23:34:03.189Z,10.05
2022-11-27T23:36:36.382Z,9.35
2022-11-27T23:39:14.498Z,10.85
2022-11-27T23:42:00.417Z,9.93
2022-11-27T23:44:28.776Z,9.45
2022-11-27T23:47:01.757Z,10.10
2022-11-27T23:49:29.721Z,10.43
2022-11-27T23:51:58.566Z,11.48
2022-11-27T23:54:28.961Z,11.00
2022-11-27T23:56:56.777Z,10.57
2022-11-27T23:59:24.512Z,10.80
